Time;durP1;ratioP1;P1;durP2;ratioP2;P2;SDS_P1;SDS_P2;PMS_P1;PMS_P2;Temp;Humidity;BMP_temperature;BMP_pressure;BME280_temperature;BME280_humidity;BME280_pressure;Samples;Min_cycle;Max_cycle;Signal;HPM_P1;HPM_P2
2023/06/25 00:01:04;;;;;;;22.33;17.13;;;20.60;99.90;;;;;;5033961;28;20065;-71
2023/06/25 00:03:30;;;;;;;24.55;17.80;;;20.60;99.90;;;;;;5026972;28;20032;-72
2023/06/25 00:05:55;;;;;;;27.02;18.42;;;20.60;99.90;;;;;;5028408;28;20048;-71
2023/06/25 00:08:21;;;;;;;23.73;17.23;;;20.60;99.90;;;;;;5030027;28;20364;-71
2023/06/25 00:10:46;;;;;;;29.52;18.33;;;20.60;99.90;;;;;;5033693;28;20030;-71
2023/06/25 00:13:12;;;;;;;28.83;17.98;;;20.60;99.90;;;;;;5033578;28;20037;-70
2023/06/25 00:15:38;;;;;;;26.15;17.35;;;20.60;99.90;;;;;;5028513;28;20083;-71
2023/06/25 00:18:04;;;;;;;25.40;17.02;;;20.60;99.90;;;;;;5026993;28;20092;-71
2023/06/25 00:20:30;;;;;;;27.25;18.15;;;20.50;99.90;;;;;;5032537;28;20025;-71
2023/06/25 00:22:56;;;;;;;24.42;16.95;;;20.50;99.90;;;;;;5033345;28;20026;-71
2023/06/25 00:25:26;;;;;;;24.73;17.65;;;20.50;99.90;;;;;;5031260;28;20021;-71
2023/06/25 00:27:52;;;;;;;26.08;18.35;;;20.50;99.90;;;;;;5033142;28;20017;-71
2023/06/25 00:30:17;;;;;;;25.30;17.48;;;20.50;99.90;;;;;;5032708;28;20033;-71
2023/06/25 00:32:44;;;;;;;29.52;18.33;;;20.50;99.90;;;;;;5030823;28;20469;-71
2023/06/25 00:35:11;;;;;;;28.85;18.25;;;20.50;99.90;;;;;;5023323;28;20017;-71
2023/06/25 00:37:38;;;;;;;24.67;17.70;;;20.50;99.90;;;;;;5028501;28;20476;-71
2023/06/25 00:40:05;;;;;;;25.35;17.13;;;20.40;99.90;;;;;;5033266;28;20342;-71
2023/06/25 00:42:58;;;;;;;26.02;17.75;;;20.40;99.90;;;;;;5033024;28;20025;-71
2023/06/25 00:45:26;;;;;;;25.70;17.50;;;20.40;99.90;;;;;;5021948;28;20068;-71
2023/06/25 00:47:53;;;;;;;22.85;16.38;;;20.40;99.90;;;;;;5032625;28;20021;-71
2023/06/25 00:50:21;;;;;;;25.55;16.80;;;20.40;99.90;;;;;;5027367;28;20441;-71
2023/06/25 00:52:51;;;;;;;29.20;18.23;;;20.40;99.90;;;;;;5015837;28;20057;-71
2023/06/25 00:55:19;;;;;;;28.83;17.25;;;20.40;99.90;;;;;;5032681;28;20033;-71
2023/06/25 00:57:45;;;;;;;27.25;18.20;;;20.40;99.90;;;;;;5025948;28;20159;-71
2023/06/25 01:00:16;;;;;;;27.13;19.23;;;20.30;99.90;;;;;;5033015;28;20495;-71
2023/06/25 01:02:46;;;;;;;27.17;18.70;;;20.40;99.90;;;;;;5027127;28;20030;-71
2023/06/25 01:05:43;;;;;;;25.52;18.58;;;20.40;99.90;;;;;;5029269;28;20044;-71
2023/06/25 01:08:10;;;;;;;26.92;18.63;;;20.40;99.90;;;;;;5022744;28;20022;-71
2023/06/25 01:10:36;;;;;;;29.23;19.13;;;20.30;99.90;;;;;;5028331;28;20036;-71
2023/06/25 01:13:02;;;;;;;28.30;19.02;;;20.30;99.90;;;;;;5028358;28;20028;-71
2023/06/25 01:15:27;;;;;;;27.45;18.02;;;20.30;99.90;;;;;;5024529;28;20365;-71
2023/06/25 01:17:54;;;;;;;26.45;18.20;;;20.30;99.90;;;;;;5027242;28;20052;-71
2023/06/25 01:20:21;;;;;;;29.23;18.75;;;20.20;99.90;;;;;;5022023;28;20021;-71
2023/06/25 01:22:48;;;;;;;24.20;17.05;;;20.20;99.90;;;;;;5029319;28;20645;-71
2023/06/25 01:25:14;;;;;;;27.15;17.08;;;20.20;99.90;;;;;;5031744;28;20017;-71
2023/06/25 01:27:40;;;;;;;30.67;17.23;;;20.20;99.90;;;;;;5026329;28;20029;-71
2023/06/25 01:30:06;;;;;;;24.75;16.92;;;20.20;99.90;;;;;;5032008;28;20100;-71
2023/06/25 01:32:32;;;;;;;23.40;16.40;;;20.20;99.90;;;;;;5031559;28;20111;-71
2023/06/25 01:34:57;;;;;;;24.92;17.30;;;20.20;99.90;;;;;;5024429;28;20036;-71
2023/06/25 01:37:23;;;;;;;27.63;17.27;;;20.10;99.90;;;;;;5026910;28;20030;-71
2023/06/25 01:39:50;;;;;;;29.73;17.92;;;20.10;99.90;;;;;;5031953;28;20029;-71
2023/06/25 01:42:16;;;;;;;25.95;17.00;;;20.10;99.90;;;;;;5032057;28;20030;-71
2023/06/25 01:44:41;;;;;;;25.45;16.65;;;20.10;99.90;;;;;;5026989;28;20037;-71
2023/06/25 01:47:07;;;;;;;25.38;16.00;;;20.10;99.90;;;;;;5031890;28;20570;-71
2023/06/25 01:49:33;;;;;;;28.17;18.17;;;20.10;99.90;;;;;;5030566;28;20338;-71
2023/06/25 01:51:59;;;;;;;26.45;15.88;;;20.10;99.90;;;;;;5023852;28;20022;-71
2023/06/25 01:54:25;;;;;;;24.63;16.75;;;20.10;99.90;;;;;;5017792;28;20045;-71
2023/06/25 01:56:51;;;;;;;26.13;16.95;;;20.00;99.90;;;;;;5030580;28;20022;-71
2023/06/25 01:59:16;;;;;;;27.38;17.10;;;20.00;99.90;;;;;;5024363;28;20049;-71
2023/06/25 02:01:42;;;;;;;24.13;16.92;;;20.00;99.90;;;;;;5031524;28;20093;-71
2023/06/25 02:04:07;;;;;;;28.40;17.35;;;20.00;99.90;;;;;;5025476;28;20473;-71
2023/06/25 02:06:33;;;;;;;28.73;16.95;;;20.00;99.90;;;;;;5021532;28;20437;-71
2023/06/25 02:08:59;;;;;;;25.60;16.88;;;20.00;99.90;;;;;;5028514;28;20415;-71
2023/06/25 02:11:24;;;;;;;26.50;17.17;;;20.10;99.90;;;;;;5031621;28;20021;-71
2023/06/25 02:13:50;;;;;;;25.52;17.20;;;20.00;99.90;;;;;;5028619;28;20384;-71
2023/06/25 02:16:15;;;;;;;27.52;17.45;;;20.00;99.90;;;;;;5028788;28;20032;-71
2023/06/25 02:18:41;;;;;;;29.40;18.25;;;20.00;99.90;;;;;;5031399;28;20026;-71
2023/06/25 02:21:07;;;;;;;26.58;17.13;;;20.00;99.90;;;;;;5031384;28;20028;-71
2023/06/25 02:23:32;;;;;;;29.90;18.45;;;20.00;99.90;;;;;;5022779;28;20132;-71
2023/06/25 02:25:58;;;;;;;27.33;18.00;;;20.00;99.90;;;;;;5023391;28;20541;-71
2023/06/25 02:28:24;;;;;;;28.00;17.70;;;20.00;99.90;;;;;;5026409;28;20025;-71
2023/06/25 02:30:49;;;;;;;27.65;17.05;;;20.00;99.90;;;;;;5021217;28;20065;-71
2023/06/25 02:33:15;;;;;;;27.25;17.70;;;19.90;99.90;;;;;;5033169;28;20038;-71
2023/06/25 02:35:41;;;;;;;27.58;17.00;;;19.90;99.90;;;;;;5021715;28;20041;-71
2023/06/25 02:38:07;;;;;;;30.65;18.58;;;19.90;99.90;;;;;;5035130;28;20010;-71
2023/06/25 02:40:32;;;;;;;26.20;17.63;;;19.90;99.90;;;;;;5035131;28;20032;-71
2023/06/25 02:42:58;;;;;;;29.95;18.02;;;19.90;99.90;;;;;;5033079;28;20025;-71
2023/06/25 02:45:24;;;;;;;26.65;18.33;;;19.90;99.90;;;;;;5033682;28;20037;-71
2023/06/25 02:47:49;;;;;;;27.30;18.05;;;19.90;99.90;;;;;;5031026;28;20364;-71
2023/06/25 02:50:15;;;;;;;30.15;18.20;;;19.90;99.90;;;;;;5034694;28;20026;-71
2023/06/25 02:52:42;;;;;;;26.02;17.25;;;19.90;99.90;;;;;;5025236;28;20029;-71
2023/06/25 02:55:08;;;;;;;28.20;17.48;;;19.90;99.90;;;;;;5025303;28;20036;-71
2023/06/25 02:57:34;;;;;;;29.75;18.50;;;19.90;99.90;;;;;;5027366;28;20033;-71
2023/06/25 03:00:00;;;;;;;28.30;17.40;;;19.90;99.90;;;;;;5031061;28;20516;-71
2023/06/25 03:02:26;;;;;;;29.80;18.80;;;19.90;99.90;;;;;;5020407;28;20443;-71
2023/06/25 03:04:52;;;;;;;29.00;18.80;;;19.80;99.90;;;;;;5033523;28;20030;-71
2023/06/25 03:07:18;;;;;;;27.80;18.33;;;19.80;99.90;;;;;;5021884;28;20029;-71
2023/06/25 03:09:44;;;;;;;28.42;18.38;;;19.80;99.90;;;;;;5030491;28;20029;-71
2023/06/25 03:12:10;;;;;;;28.23;18.75;;;19.80;99.90;;;;;;5026619;28;20453;-71
2023/06/25 03:14:36;;;;;;;29.02;17.90;;;19.80;99.90;;;;;;5031016;28;20077;-71
2023/06/25 03:17:03;;;;;;;29.95;19.25;;;19.80;99.90;;;;;;5028599;28;20021;-71
2023/06/25 03:19:29;;;;;;;31.48;18.88;;;19.80;99.90;;;;;;5025279;28;20080;-71
2023/06/25 03:21:55;;;;;;;31.35;19.38;;;19.80;99.90;;;;;;5030309;28;20030;-71
2023/06/25 03:24:20;;;;;;;28.08;18.92;;;19.80;99.90;;;;;;5029086;28;20040;-71
2023/06/25 03:26:46;;;;;;;29.13;18.23;;;19.70;99.90;;;;;;5031847;28;20095;-71
2023/06/25 03:29:12;;;;;;;30.42;19.67;;;19.70;99.90;;;;;;5031085;28;20076;-71
2023/06/25 03:31:37;;;;;;;29.27;18.80;;;19.70;99.90;;;;;;5022754;28;20072;-71
2023/06/25 03:34:03;;;;;;;28.83;18.17;;;19.70;99.90;;;;;;5029256;28;20022;-71
2023/06/25 03:36:29;;;;;;;28.20;18.45;;;19.60;99.90;;;;;;5026877;28;20022;-71
2023/06/25 03:38:55;;;;;;;32.35;18.95;;;19.60;99.90;;;;;;5021099;28;20034;-71
2023/06/25 03:41:20;;;;;;;28.20;19.02;;;19.60;99.90;;;;;;5032920;28;20010;-71
2023/06/25 03:43:46;;;;;;;27.58;18.70;;;19.60;99.90;;;;;;5033922;28;20079;-71
2023/06/25 03:46:12;;;;;;;33.92;20.02;;;19.60;99.90;;;;;;5028860;28;20097;-71
2023/06/25 03:48:40;;;;;;;29.35;20.35;;;19.50;99.90;;;;;;5025753;28;20656;-71
2023/06/25 03:51:05;;;;;;;29.48;19.20;;;19.50;99.90;;;;;;5025044;28;20156;-71
2023/06/25 03:53:31;;;;;;;31.08;19.80;;;19.50;99.90;;;;;;5027435;28;20125;-71
2023/06/25 03:55:57;;;;;;;28.98;19.00;;;19.50;99.90;;;;;;5025560;28;20040;-71
2023/06/25 03:58:22;;;;;;;30.00;19.00;;;19.50;99.90;;;;;;5033675;28;20483;-71
2023/06/25 04:00:48;;;;;;;28.13;19.33;;;19.50;99.90;;;;;;5025482;28;20049;-71
2023/06/25 04:03:13;;;;;;;28.40;18.95;;;19.50;99.90;;;;;;5028224;28;20037;-71
2023/06/25 04:05:41;;;;;;;28.90;19.27;;;19.50;99.90;;;;;;5026283;28;20032;-71
2023/06/25 04:08:06;;;;;;;32.65;19.17;;;19.50;99.90;;;;;;5033621;28;20029;-71
2023/06/25 04:10:32;;;;;;;29.15;19.00;;;19.50;99.90;;;;;;5028332;28;20021;-71
2023/06/25 04:12:57;;;;;;;30.55;20.02;;;19.60;99.90;;;;;;5024722;28;20026;-71
2023/06/25 04:15:23;;;;;;;29.45;18.85;;;19.60;99.90;;;;;;5028255;28;20022;-71
2023/06/25 04:17:49;;;;;;;29.92;19.27;;;19.60;99.90;;;;;;5024232;28;20040;-71
2023/06/25 04:20:14;;;;;;;33.20;19.40;;;19.60;99.90;;;;;;5033234;28;20025;-71
2023/06/25 04:22:40;;;;;;;30.35;19.55;;;19.60;99.90;;;;;;5031226;28;20059;-71
2023/06/25 04:25:06;;;;;;;28.30;18.63;;;19.60;99.90;;;;;;5027880;28;20059;-71
2023/06/25 04:27:32;;;;;;;31.85;19.02;;;19.60;99.90;;;;;;5017846;28;20029;-71
2023/06/25 04:29:58;;;;;;;27.10;17.05;;;19.60;99.90;;;;;;5019426;28;20025;-71
2023/06/25 04:32:24;;;;;;;28.10;18.42;;;19.60;99.90;;;;;;5033274;28;20021;-71
2023/06/25 04:34:49;;;;;;;29.65;19.48;;;19.70;99.90;;;;;;5015288;28;20041;-71
2023/06/25 04:37:15;;;;;;;31.83;18.90;;;19.70;99.90;;;;;;5027305;28;20414;-71
2023/06/25 04:39:40;;;;;;;30.27;19.20;;;19.70;99.90;;;;;;5033138;28;20018;-71
2023/06/25 04:42:06;;;;;;;29.88;19.42;;;19.80;99.90;;;;;;5033192;28;20017;-71
2023/06/25 04:44:32;;;;;;;31.30;19.48;;;19.80;99.90;;;;;;5030928;28;20021;-71
2023/06/25 04:46:58;;;;;;;27.85;19.00;;;19.80;99.90;;;;;;5025888;28;20053;-71
2023/06/25 04:49:24;;;;;;;30.58;18.63;;;19.80;99.90;;;;;;5031324;28;20025;-71
2023/06/25 04:51:49;;;;;;;31.63;19.17;;;19.80;99.90;;;;;;5021812;28;20457;-71
2023/06/25 04:54:15;;;;;;;33.50;21.17;;;19.90;99.90;;;;;;5028950;28;20045;-71
2023/06/25 04:56:41;;;;;;;34.17;20.40;;;19.90;99.90;;;;;;5022110;28;20026;-71
2023/06/25 04:59:07;;;;;;;33.08;20.38;;;19.90;99.90;;;;;;5032282;28;20017;-71
2023/06/25 05:01:32;;;;;;;34.15;20.75;;;19.90;99.90;;;;;;5031326;28;20399;-71
2023/06/25 05:03:59;;;;;;;33.72;20.45;;;20.00;99.90;;;;;;5030607;28;20026;-71
2023/06/25 05:06:25;;;;;;;27.48;18.35;;;20.00;99.90;;;;;;5031928;28;20018;-71
2023/06/25 05:08:50;;;;;;;32.22;19.77;;;20.00;99.90;;;;;;5025330;28;20427;-71
2023/06/25 05:11:16;;;;;;;32.67;18.70;;;20.10;99.90;;;;;;5032494;28;20021;-71
2023/06/25 05:13:42;;;;;;;29.90;18.77;;;20.10;99.90;;;;;;5026867;28;20037;-71
2023/06/25 05:16:07;;;;;;;31.45;19.30;;;20.10;99.90;;;;;;5028677;28;20029;-71
2023/06/25 05:18:33;;;;;;;30.85;18.80;;;20.20;99.90;;;;;;5020423;28;20054;-71
2023/06/25 05:20:59;;;;;;;28.25;18.70;;;20.20;99.90;;;;;;5026938;28;20032;-70
2023/06/25 05:23:25;;;;;;;33.35;20.55;;;20.20;99.90;;;;;;5027056;28;20038;-71
2023/06/25 05:25:51;;;;;;;33.67;20.60;;;20.20;99.90;;;;;;5030361;28;20029;-71
2023/06/25 05:28:17;;;;;;;31.63;19.02;;;20.30;99.90;;;;;;5015024;28;20033;-71
2023/06/25 05:30:42;;;;;;;29.20;18.77;;;20.30;99.90;;;;;;5031902;28;20036;-70
2023/06/25 05:33:08;;;;;;;29.98;19.65;;;20.30;99.90;;;;;;5029664;28;20380;-70
2023/06/25 05:35:34;;;;;;;32.88;19.85;;;20.30;99.90;;;;;;5024518;28;20499;-71
2023/06/25 05:38:00;;;;;;;29.30;19.85;;;20.40;99.90;;;;;;5022907;28;20105;-71
2023/06/25 05:40:26;;;;;;;31.42;19.90;;;20.40;99.90;;;;;;5027941;28;20035;-71
2023/06/25 05:42:54;;;;;;;31.08;19.67;;;20.40;99.90;;;;;;5022989;28;20029;-71
2023/06/25 05:45:19;;;;;;;31.98;20.02;;;20.50;99.90;;;;;;5030898;28;20022;-71
2023/06/25 05:47:45;;;;;;;31.67;19.85;;;20.50;99.90;;;;;;5027792;28;20568;-70
2023/06/25 05:50:11;;;;;;;30.08;18.65;;;20.50;99.90;;;;;;5025836;28;20081;-70
2023/06/25 05:52:37;;;;;;;32.55;18.80;;;20.60;99.90;;;;;;5028251;28;20389;-70
2023/06/25 05:55:02;;;;;;;28.95;18.77;;;20.60;99.90;;;;;;5024052;28;20029;-71
2023/06/25 05:57:28;;;;;;;28.92;18.05;;;20.60;99.90;;;;;;5025918;28;20022;-71
2023/06/25 05:59:54;;;;;;;28.02;18.38;;;20.70;99.90;;;;;;5027487;28;20033;-71
2023/06/25 06:02:19;;;;;;;30.77;19.13;;;20.70;99.90;;;;;;5024731;28;20531;-71
2023/06/25 06:04:45;;;;;;;30.30;18.52;;;20.80;99.90;;;;;;5026900;28;20044;-71
2023/06/25 06:07:11;;;;;;;28.60;17.25;;;20.80;99.90;;;;;;5025010;28;20476;-72
2023/06/25 06:09:36;;;;;;;28.58;17.73;;;20.90;99.90;;;;;;5027232;28;20028;-72
2023/06/25 06:12:02;;;;;;;28.33;17.10;;;20.90;99.90;;;;;;5023552;28;20026;-72
2023/06/25 06:14:28;;;;;;;23.95;15.82;;;21.00;99.90;;;;;;5030321;28;20025;-72
2023/06/25 06:16:53;;;;;;;24.48;16.52;;;21.00;99.90;;;;;;5017414;28;20049;-72
2023/06/25 06:19:19;;;;;;;27.25;16.38;;;21.10;99.90;;;;;;5022476;28;20592;-72
2023/06/25 06:21:44;;;;;;;28.25;15.48;;;21.10;99.90;;;;;;5030101;28;20733;-72
2023/06/25 06:24:10;;;;;;;27.48;16.48;;;21.20;99.90;;;;;;5028565;28;20013;-72
2023/06/25 06:26:36;;;;;;;21.58;14.88;;;21.30;99.90;;;;;;5029791;28;20021;-71
2023/06/25 06:29:03;;;;;;;24.45;14.48;;;21.30;99.90;;;;;;5025589;28;20357;-72
2023/06/25 06:31:30;;;;;;;23.73;14.88;;;21.50;99.90;;;;;;5030427;28;20431;-72
2023/06/25 06:33:56;;;;;;;22.13;13.95;;;21.50;99.90;;;;;;5030624;28;20025;-71
2023/06/25 06:36:22;;;;;;;22.55;14.07;;;21.60;99.90;;;;;;5023495;28;20466;-72
2023/06/25 06:38:47;;;;;;;19.83;12.93;;;21.80;99.90;;;;;;5021427;28;20030;-72
2023/06/25 06:41:13;;;;;;;19.85;12.25;;;21.80;99.90;;;;;;5026666;28;20013;-72
2023/06/25 06:43:39;;;;;;;19.00;12.63;;;21.90;99.90;;;;;;5021932;28;20096;-72
2023/06/25 06:46:04;;;;;;;23.67;11.75;;;22.10;99.90;;;;;;5011998;28;20264;-72
2023/06/25 06:48:30;;;;;;;20.10;12.23;;;22.20;99.90;;;;;;5026458;28;20064;-72
2023/06/25 06:50:56;;;;;;;16.23;10.88;;;22.30;99.90;;;;;;5025296;28;20452;-72
2023/06/25 06:53:21;;;;;;;19.70;10.77;;;22.40;99.90;;;;;;5015986;28;20042;-71
2023/06/25 06:55:47;;;;;;;16.75;10.43;;;22.60;99.90;;;;;;5021954;28;20026;-72
2023/06/25 06:58:13;;;;;;;15.30;9.82;;;22.70;99.90;;;;;;5017766;28;20026;-71
2023/06/25 07:00:38;;;;;;;17.15;11.27;;;22.90;99.90;;;;;;5017454;28;20041;-72
2023/06/25 07:03:04;;;;;;;18.85;10.52;;;23.10;99.90;;;;;;5029973;28;20479;-71
2023/06/25 07:05:29;;;;;;;25.83;9.93;;;23.20;99.90;;;;;;5027749;28;20026;-72
2023/06/25 07:07:55;;;;;;;22.55;10.57;;;23.40;99.90;;;;;;5023593;28;20026;-72
2023/06/25 07:10:21;;;;;;;15.80;9.65;;;23.50;99.90;;;;;;5027916;28;20417;-72
2023/06/25 07:12:46;;;;;;;15.73;9.25;;;23.70;99.90;;;;;;5029831;28;20018;-72
2023/06/25 07:15:12;;;;;;;13.43;8.48;;;23.90;99.90;;;;;;5030559;28;20021;-72
2023/06/25 07:17:38;;;;;;;12.50;8.00;;;24.10;99.90;;;;;;5026109;28;20037;-72
2023/06/25 07:20:04;;;;;;;11.43;7.90;;;24.30;99.90;;;;;;5018358;28;20511;-72
2023/06/25 07:22:29;;;;;;;10.38;7.82;;;24.50;99.90;;;;;;5019819;28;20033;-72
2023/06/25 07:24:55;;;;;;;9.55;6.72;;;24.70;99.90;;;;;;5031304;28;20040;-72
2023/06/25 07:27:20;;;;;;;11.85;6.60;;;24.90;99.90;;;;;;5020108;28;20026;-72
2023/06/25 07:29:46;;;;;;;11.18;7.10;;;25.20;99.90;;;;;;5027694;28;20491;-72
2023/06/25 07:32:12;;;;;;;8.60;5.82;;;25.30;99.90;;;;;;5025190;28;20024;-73
2023/06/25 07:34:37;;;;;;;10.48;6.57;;;25.50;99.90;;;;;;5023498;28;20068;-74
2023/06/25 07:37:03;;;;;;;9.18;6.13;;;25.60;99.90;;;;;;5028365;28;20026;-73
2023/06/25 07:39:29;;;;;;;9.40;5.97;;;25.70;99.90;;;;;;5018065;28;20466;-73
2023/06/25 07:41:56;;;;;;;11.02;6.20;;;25.90;99.90;;;;;;5029002;28;20029;-72
2023/06/25 07:44:22;;;;;;;9.88;6.25;;;26.10;99.90;;;;;;5031624;28;20052;-73
2023/06/25 07:46:48;;;;;;;9.57;5.53;;;26.30;99.80;;;;;;5019187;28;20030;-72
2023/06/25 07:49:14;;;;;;;8.38;5.13;;;26.40;98.50;;;;;;5021210;28;20063;-73
2023/06/25 07:51:43;;;;;;;10.57;5.43;;;26.50;96.50;;;;;;5030744;28;20041;-73
2023/06/25 07:54:09;;;;;;;8.13;5.40;;;26.60;94.20;;;;;;5027314;28;20135;-73
2023/06/25 07:56:35;;;;;;;7.10;4.45;;;26.70;93.40;;;;;;5030096;28;20076;-73
2023/06/25 07:59:00;;;;;;;5.95;4.38;;;26.80;92.60;;;;;;5028265;28;20404;-73
2023/06/25 08:01:26;;;;;;;9.27;5.00;;;27.00;91.80;;;;;;5028015;28;20022;-73
2023/06/25 08:03:51;;;;;;;6.50;4.10;;;27.10;90.90;;;;;;5022363;28;20132;-73
2023/06/25 08:06:17;;;;;;;6.50;3.97;;;27.20;88.80;;;;;;5021078;28;20068;-73
2023/06/25 08:08:42;;;;;;;5.07;3.70;;;27.30;84.60;;;;;;5025911;28;20029;-72
2023/06/25 08:11:08;;;;;;;8.13;4.15;;;27.40;81.10;;;;;;5023683;28;20024;-72
2023/06/25 08:13:34;;;;;;;5.93;3.35;;;27.50;77.10;;;;;;5020450;28;20072;-72
2023/06/25 08:15:59;;;;;;;8.45;3.17;;;27.60;73.20;;;;;;5027609;28;20196;-72
2023/06/25 08:18:25;;;;;;;5.72;3.40;;;27.70;71.00;;;;;;5020444;28;20037;-72
2023/06/25 08:20:50;;;;;;;10.95;3.65;;;27.90;69.30;;;;;;5027069;28;20022;-74
2023/06/25 08:23:16;;;;;;;8.13;3.92;;;28.00;67.00;;;;;;5025503;28;20093;-75
2023/06/25 08:25:42;;;;;;;6.20;3.60;;;28.10;66.00;;;;;;5031649;28;20057;-74
2023/06/25 08:28:07;;;;;;;4.82;3.47;;;28.20;65.20;;;;;;5022702;28;20480;-74
2023/06/25 08:30:33;;;;;;;5.32;3.03;;;28.30;63.60;;;;;;5031823;28;20022;-75
2023/06/25 08:32:59;;;;;;;6.43;3.13;;;28.40;63.20;;;;;;5023943;28;20385;-74
2023/06/25 08:35:24;;;;;;;4.03;3.10;;;28.50;61.60;;;;;;5014206;28;20133;-74
2023/06/25 08:37:50;;;;;;;4.45;3.08;;;28.70;60.90;;;;;;5029108;28;20097;-74
2023/06/25 08:40:18;;;;;;;5.13;3.17;;;28.80;59.10;;;;;;5024468;28;20022;-74
2023/06/25 08:42:44;;;;;;;5.43;3.38;;;29.00;58.60;;;;;;5028696;28;20029;-74
2023/06/25 08:45:10;;;;;;;5.68;3.30;;;29.10;58.00;;;;;;5030994;28;20033;-75
2023/06/25 08:47:40;;;;;;;5.22;3.42;;;29.20;57.30;;;;;;5032539;28;20013;-74
2023/06/25 08:50:09;;;;;;;4.60;3.00;;;29.30;56.30;;;;;;5032621;28;20025;-76
2023/06/25 08:52:35;;;;;;;6.45;3.00;;;29.40;55.70;;;;;;5025929;28;20028;-74
2023/06/25 08:55:01;;;;;;;6.82;3.08;;;29.60;55.50;;;;;;5026841;28;20041;-74
2023/06/25 08:57:27;;;;;;;6.50;3.40;;;29.70;54.90;;;;;;5018285;28;20029;-74
2023/06/25 08:59:52;;;;;;;4.65;3.50;;;29.70;54.10;;;;;;5029148;28;20057;-73
2023/06/25 09:02:18;;;;;;;6.85;3.42;;;29.90;54.20;;;;;;5031112;28;20491;-73
2023/06/25 09:04:46;;;;;;;5.70;3.40;;;29.90;53.60;;;;;;5026447;28;20025;-73
2023/06/25 09:07:16;;;;;;;5.55;3.72;;;30.00;53.50;;;;;;5020324;28;20102;-73
2023/06/25 09:09:43;;;;;;;5.13;3.50;;;30.10;53.20;;;;;;5026104;28;20021;-74
2023/06/25 09:12:09;;;;;;;6.75;3.83;;;30.20;53.10;;;;;;5027659;28;20018;-75
2023/06/25 09:14:36;;;;;;;5.45;3.67;;;30.30;52.60;;;;;;5014463;28;20053;-75
2023/06/25 09:17:02;;;;;;;4.43;3.35;;;30.40;52.40;;;;;;5028316;28;20022;-75
2023/06/25 09:19:28;;;;;;;5.68;3.80;;;30.40;52.40;;;;;;5031280;28;20022;-75
2023/06/25 09:21:54;;;;;;;7.30;3.90;;;30.50;52.60;;;;;;5016729;28;20033;-74
2023/06/25 09:24:21;;;;;;;5.22;3.42;;;30.60;52.30;;;;;;5019322;28;20726;-74
2023/06/25 09:26:53;;;;;;;5.22;3.67;;;30.70;52.10;;;;;;5025406;28;20354;-73
2023/06/25 09:29:21;;;;;;;5.07;3.42;;;30.80;52.20;;;;;;5025309;28;20032;-73
2023/06/25 09:31:48;;;;;;;7.50;3.97;;;31.00;52.10;;;;;;5032136;28;20060;-74
2023/06/25 09:34:16;;;;;;;5.20;3.95;;;31.00;51.80;;;;;;5029867;28;20360;-73
2023/06/25 09:36:43;;;;;;;8.13;4.07;;;31.10;51.40;;;;;;5020916;28;20037;-76
2023/06/25 09:39:11;;;;;;;6.88;3.47;;;31.20;51.40;;;;;;5023747;28;20037;-75
2023/06/25 09:41:40;;;;;;;5.15;3.60;;;31.20;50.80;;;;;;5031618;28;20017;-75
2023/06/25 09:44:06;;;;;;;7.45;3.35;;;31.30;50.10;;;;;;5030445;28;20017;-75
2023/06/25 09:46:34;;;;;;;11.50;3.97;;;31.40;49.60;;;;;;5029639;28;20376;-75
2023/06/25 09:49:03;;;;;;;5.43;3.25;;;31.30;49.30;;;;;;5022908;28;20357;-74
2023/06/25 09:52:02;;;;;;;6.15;3.33;;;31.40;49.30;;;;;;5030581;28;20453;-72
2023/06/25 09:54:29;;;;;;;4.47;3.33;;;31.40;48.50;;;;;;5016511;28;20450;-72
2023/06/25 09:56:58;;;;;;;4.63;3.20;;;31.40;48.80;;;;;;5031425;28;20050;-73
2023/06/25 09:59:26;;;;;;;4.70;3.38;;;31.40;48.50;;;;;;5031497;28;20242;-72
2023/06/25 10:01:52;;;;;;;4.80;3.47;;;31.40;48.50;;;;;;5026376;28;20523;-72
2023/06/25 10:04:19;;;;;;;5.80;3.33;;;31.50;48.30;;;;;;5024445;28;20104;-73
2023/06/25 10:06:46;;;;;;;6.72;3.78;;;31.50;48.00;;;;;;5030200;28;20030;-72
2023/06/25 10:09:12;;;;;;;9.40;3.65;;;31.60;48.00;;;;;;5024745;28;20040;-72
2023/06/25 10:11:49;;;;;;;5.70;3.60;;;31.70;48.00;;;;;;5031082;28;20033;-73
2023/06/25 10:14:15;;;;;;;6.25;3.60;;;31.80;47.50;;;;;;5029859;28;20030;-73
2023/06/25 10:16:41;;;;;;;5.25;3.70;;;31.90;48.00;;;;;;5026435;28;20757;-72
2023/06/25 10:19:07;;;;;;;4.70;3.55;;;32.10;47.90;;;;;;5031451;28;20101;-72
2023/06/25 10:21:32;;;;;;;4.72;3.63;;;32.20;47.30;;;;;;5031905;28;20056;-72
2023/06/25 10:24:03;;;;;;;4.97;3.50;;;32.20;46.90;;;;;;5024665;28;20045;-72
2023/06/25 10:26:31;;;;;;;5.78;3.70;;;32.30;46.80;;;;;;5013618;28;20033;-72
2023/06/25 10:29:00;;;;;;;5.05;3.90;;;32.30;46.70;;;;;;5023860;28;20057;-72
2023/06/25 10:31:35;;;;;;;5.00;3.60;;;32.40;46.50;;;;;;5031047;28;20125;-72
2023/06/25 10:34:08;;;;;;;5.55;3.97;;;32.50;46.40;;;;;;5030536;28;20034;-72
2023/06/25 10:36:34;;;;;;;8.32;3.97;;;32.60;46.50;;;;;;5028661;28;20033;-72
2023/06/25 10:39:01;;;;;;;6.45;3.90;;;32.70;46.00;;;;;;5019890;28;20058;-72
2023/06/25 10:41:31;;;;;;;5.78;3.90;;;32.70;46.10;;;;;;5018472;28;20014;-72
2023/06/25 10:43:58;;;;;;;5.43;3.72;;;32.80;46.30;;;;;;5031303;28;20025;-72
2023/06/25 10:46:30;;;;;;;4.20;3.75;;;33.00;46.40;;;;;;5030690;28;20329;-72
2023/06/25 10:48:59;;;;;;;4.82;3.67;;;33.00;46.10;;;;;;5033030;28;20377;-72
2023/06/25 10:51:25;;;;;;;4.65;3.95;;;32.90;46.40;;;;;;5034110;28;20063;-72
2023/06/25 10:53:52;;;;;;;6.75;3.92;;;33.00;46.70;;;;;;5035002;28;20171;-71
2023/06/25 10:56:18;;;;;;;4.45;3.95;;;33.00;46.40;;;;;;5023445;28;20026;-72
2023/06/25 10:58:44;;;;;;;5.20;4.10;;;33.10;46.30;;;;;;5026687;28;20025;-72
2023/06/25 11:01:10;;;;;;;5.38;4.30;;;33.10;46.00;;;;;;5025578;28;20013;-72
2023/06/25 11:03:36;;;;;;;8.95;4.03;;;33.10;45.80;;;;;;5029955;28;20072;-72
2023/06/25 11:06:01;;;;;;;6.60;4.28;;;33.10;45.90;;;;;;5029302;28;20025;-72
2023/06/25 11:08:27;;;;;;;6.28;4.30;;;33.20;45.90;;;;;;5035043;28;20025;-72
2023/06/25 11:10:53;;;;;;;5.85;4.20;;;33.20;45.90;;;;;;5027017;28;20045;-72
2023/06/25 11:13:19;;;;;;;5.75;4.40;;;33.20;46.00;;;;;;5023024;28;20026;-72
2023/06/25 11:15:45;;;;;;;5.47;4.63;;;33.30;45.80;;;;;;5034094;28;20052;-72
2023/06/25 11:18:11;;;;;;;6.80;5.05;;;33.30;45.80;;;;;;5034546;28;20152;-72
2023/06/25 11:20:41;;;;;;;8.55;4.40;;;33.40;45.50;;;;;;5022193;28;20104;-72
2023/06/25 11:23:13;;;;;;;5.95;4.57;;;33.40;45.40;;;;;;5034324;28;20021;-72
2023/06/25 11:25:39;;;;;;;11.00;5.10;;;33.40;45.40;;;;;;5030250;28;20049;-72
2023/06/25 11:28:12;;;;;;;8.45;4.95;;;33.30;45.30;;;;;;5025860;28;20691;-72
2023/06/25 11:30:38;;;;;;;7.32;4.85;;;33.30;45.40;;;;;;5027430;28;20292;-72
2023/06/25 11:33:17;;;;;;;7.85;5.03;;;33.30;45.60;;;;;;5032657;28;20025;-72
2023/06/25 11:35:49;;;;;;;5.82;4.80;;;33.60;45.60;;;;;;5030290;28;20041;-72
2023/06/25 11:38:35;;;;;;;10.05;5.00;;;33.60;45.50;;;;;;5023898;28;20152;-71
2023/06/25 11:41:01;;;;;;;6.70;4.53;;;33.70;45.50;;;;;;5032121;28;20080;-70
2023/06/25 11:43:28;;;;;;;7.03;4.97;;;33.60;45.40;;;;;;5028594;28;20061;-70
2023/06/25 11:45:59;;;;;;;10.98;5.18;;;33.70;45.50;;;;;;5026302;28;20033;-71
2023/06/25 11:48:25;;;;;;;9.52;5.30;;;33.70;45.60;;;;;;5032462;28;20444;-70
2023/06/25 11:50:52;;;;;;;6.82;5.13;;;33.60;45.60;;;;;;5031757;28;20036;-69
2023/06/25 11:53:17;;;;;;;19.08;10.45;;;33.80;45.40;;;;;;5020367;28;20033;-69
2023/06/25 11:55:43;;;;;;;26.40;20.50;;;33.90;44.60;;;;;;5025150;28;20110;-69
2023/06/25 11:58:09;;;;;;;98.78;38.53;;;33.90;44.60;;;;;;5033339;28;20056;-70
2023/06/25 12:00:35;;;;;;;25.90;17.98;;;34.10;45.10;;;;;;5032297;28;20346;-69
2023/06/25 12:03:01;;;;;;;336.67;98.57;;;34.10;45.20;;;;;;5026656;28;20388;-69
2023/06/25 12:05:27;;;;;;;41.58;16.55;;;34.20;44.20;;;;;;5022891;28;20022;-70
2023/06/25 12:07:52;;;;;;;15.15;7.05;;;34.30;44.20;;;;;;5026898;28;20029;-69
2023/06/25 12:10:18;;;;;;;14.25;6.95;;;34.40;44.20;;;;;;5033585;28;20041;-70
2023/06/25 12:12:45;;;;;;;7.80;5.63;;;34.50;44.60;;;;;;5023190;28;20141;-70
2023/06/25 12:15:11;;;;;;;6.60;4.80;;;34.40;43.90;;;;;;5028306;28;20116;-70
2023/06/25 12:17:36;;;;;;;76.38;21.60;;;34.30;43.80;;;;;;5034009;28;20032;-70
2023/06/25 12:20:04;;;;;;;69.30;47.75;;;34.30;44.30;;;;;;5026423;28;20018;-70
2023/06/25 12:22:29;;;;;;;8.07;5.32;;;34.30;44.30;;;;;;5023477;28;20480;-70
2023/06/25 12:24:55;;;;;;;10.68;5.82;;;34.30;44.00;;;;;;5021064;28;20030;-70
2023/06/25 12:27:21;;;;;;;7.53;5.03;;;34.30;44.10;;;;;;5024923;28;20140;-69
2023/06/25 12:29:46;;;;;;;8.82;5.38;;;34.20;44.20;;;;;;5031350;28;20029;-71